Time;durP1;ratioP1;P1;durP2;ratioP2;P2;SDS_P1;SDS_P2;PMS_P1;PMS_P2;Temp;Humidity;BMP_temperature;BMP_pressure;BME280_temperature;BME280_humidity;BME280_pressure;Samples;Min_cycle;Max_cycle;Signal;HPM_P1;HPM_P2
2022/01/09 00:05:43;;;;;;;11.30;1.20;;;10.10;99.90;;;;;;6262871;22;20024;-71
2022/01/09 00:08:10;;;;;;;6.32;1.52;;;10.10;99.90;;;;;;6251125;22;20008;-71
2022/01/09 00:10:37;;;;;;;3.63;1.63;;;10.10;99.90;;;;;;6251828;22;20008;-72
2022/01/09 00:13:04;;;;;;;4.88;1.13;;;10.10;99.90;;;;;;6251930;22;20417;-71
2022/01/09 00:15:30;;;;;;;1.13;0.80;;;10.10;99.90;;;;;;6251233;22;20016;-71
2022/01/09 00:17:57;;;;;;;6.43;1.27;;;10.10;99.90;;;;;;6278222;22;20028;-71
2022/01/09 00:20:23;;;;;;;3.58;1.10;;;10.10;99.90;;;;;;6278471;22;20497;-71
2022/01/09 00:22:51;;;;;;;8.27;1.92;;;10.10;99.90;;;;;;6278495;22;20004;-71
2022/01/09 00:25:20;;;;;;;5.68;1.33;;;10.20;99.90;;;;;;6278785;22;20008;-72
2022/01/09 00:27:48;;;;;;;4.60;1.63;;;10.10;99.90;;;;;;6278247;22;20067;-71
2022/01/09 00:30:22;;;;;;;2.85;1.10;;;10.10;99.90;;;;;;6278662;22;20012;-72
2022/01/09 00:32:50;;;;;;;4.63;1.50;;;10.10;99.90;;;;;;6278293;22;20058;-72
2022/01/09 00:35:17;;;;;;;6.07;1.30;;;10.10;99.90;;;;;;6251500;22;20031;-72
2022/01/09 00:37:45;;;;;;;2.13;1.05;;;10.10;99.90;;;;;;6250998;22;20007;-72
2022/01/09 00:40:13;;;;;;;3.67;0.98;;;10.20;99.90;;;;;;6278140;22;20000;-72
2022/01/09 00:42:41;;;;;;;6.03;1.42;;;10.20;99.90;;;;;;6278377;22;20480;-72
2022/01/09 00:45:09;;;;;;;6.13;1.20;;;10.20;99.90;;;;;;6278160;22;20008;-71
2022/01/09 00:47:35;;;;;;;5.03;1.48;;;10.20;99.90;;;;;;6278156;22;20007;-71
2022/01/09 00:50:03;;;;;;;3.50;1.45;;;10.20;99.90;;;;;;6278118;22;20039;-71
2022/01/09 00:52:30;;;;;;;5.57;1.02;;;10.20;99.90;;;;;;6278245;22;20010;-72
2022/01/09 00:54:56;;;;;;;4.18;0.98;;;10.10;99.90;;;;;;6251141;22;20011;-72
2022/01/09 00:57:23;;;;;;;5.38;1.35;;;10.10;99.90;;;;;;6278102;22;20008;-72
2022/01/09 00:59:50;;;;;;;2.00;0.90;;;10.20;99.90;;;;;;6277954;22;20463;-72
2022/01/09 01:02:17;;;;;;;8.07;0.88;;;10.10;99.90;;;;;;6277934;22;20004;-72
2022/01/09 01:04:45;;;;;;;4.38;0.68;;;10.20;99.90;;;;;;6277763;22;20008;-71
2022/01/09 01:07:12;;;;;;;0.63;0.60;;;10.20;99.90;;;;;;6278362;22;20447;-72
2022/01/09 01:09:39;;;;;;;9.43;0.88;;;10.20;99.90;;;;;;6277998;22;20008;-72
2022/01/09 01:12:06;;;;;;;1.95;0.93;;;10.20;99.90;;;;;;6277953;22;20007;-71
2022/01/09 01:14:33;;;;;;;3.92;1.10;;;10.20;99.90;;;;;;6278141;22;20056;-72
2022/01/09 01:17:00;;;;;;;5.68;1.58;;;10.20;99.90;;;;;;6277925;22;20003;-72
2022/01/09 01:19:26;;;;;;;6.53;1.83;;;10.10;99.90;;;;;;6277875;22;20000;-72
2022/01/09 01:21:53;;;;;;;4.78;1.30;;;10.10;99.90;;;;;;6251280;22;20004;-71
2022/01/09 01:24:21;;;;;;;4.20;1.48;;;10.10;99.90;;;;;;6277751;22;20027;-72
2022/01/09 01:26:49;;;;;;;7.03;1.33;;;10.00;99.90;;;;;;6277842;22;20007;-72
2022/01/09 01:29:16;;;;;;;9.25;2.25;;;10.00;99.90;;;;;;6277188;22;20028;-72
2022/01/09 01:31:43;;;;;;;9.02;1.73;;;9.90;99.90;;;;;;6277768;22;20006;-71
2022/01/09 01:34:12;;;;;;;9.13;1.83;;;9.90;99.90;;;;;;6277600;22;20444;-72
2022/01/09 01:36:40;;;;;;;5.22;1.75;;;9.90;99.90;;;;;;6277664;22;20006;-72
2022/01/09 01:39:07;;;;;;;3.72;1.20;;;9.80;99.90;;;;;;6277694;22;20011;-71
2022/01/09 01:41:33;;;;;;;12.30;1.80;;;9.90;99.90;;;;;;6277926;22;20317;-71
2022/01/09 01:44:00;;;;;;;7.13;2.05;;;9.90;99.90;;;;;;6277660;22;20012;-71
2022/01/09 01:46:26;;;;;;;5.20;1.52;;;9.80;99.90;;;;;;6277633;22;20364;-72
2022/01/09 01:48:53;;;;;;;2.25;1.65;;;9.80;99.90;;;;;;6277515;22;20004;-72
2022/01/09 01:51:21;;;;;;;3.30;1.52;;;9.80;99.90;;;;;;6250663;22;20080;-72
2022/01/09 01:53:54;;;;;;;4.15;1.80;;;9.80;99.90;;;;;;6277519;22;20027;-72
2022/01/09 01:56:23;;;;;;;6.82;1.10;;;9.80;99.90;;;;;;6277407;22;20440;-71
2022/01/09 01:58:53;;;;;;;5.45;1.67;;;9.70;99.90;;;;;;6277818;22;20000;-71
2022/01/09 02:01:20;;;;;;;12.15;1.52;;;9.70;99.90;;;;;;6278205;22;20078;-72
2022/01/09 02:03:46;;;;;;;5.45;1.83;;;9.70;99.90;;;;;;6277509;22;20004;-71
2022/01/09 02:06:15;;;;;;;5.25;2.20;;;9.70;99.90;;;;;;6277190;22;20012;-72
2022/01/09 02:08:43;;;;;;;3.15;1.20;;;9.60;99.90;;;;;;6277257;22;20483;-71
2022/01/09 02:11:12;;;;;;;10.43;2.22;;;9.60;99.90;;;;;;6277345;22;20007;-72
2022/01/09 02:13:41;;;;;;;6.65;2.47;;;9.60;99.90;;;;;;6277263;22;20329;-72
2022/01/09 02:16:16;;;;;;;9.65;1.50;;;9.50;99.90;;;;;;6277656;22;20425;-72
2022/01/09 02:18:47;;;;;;;6.55;1.58;;;9.50;99.90;;;;;;6252357;22;20035;-72
2022/01/09 02:21:16;;;;;;;5.53;2.45;;;9.50;99.90;;;;;;6277208;22;20074;-72
2022/01/09 02:23:49;;;;;;;12.27;1.88;;;9.50;99.90;;;;;;6225138;22;20011;-71
2022/01/09 02:26:19;;;;;;;7.78;1.55;;;9.40;99.90;;;;;;6277156;22;20065;-71
2022/01/09 02:28:47;;;;;;;3.17;2.00;;;9.40;99.90;;;;;;6250816;22;20057;-71
2022/01/09 02:31:14;;;;;;;5.63;2.30;;;9.40;99.90;;;;;;6277062;22;20035;-71
2022/01/09 02:33:41;;;;;;;4.88;2.30;;;9.40;99.90;;;;;;6277327;22;20003;-72
2022/01/09 02:36:09;;;;;;;7.32;3.25;;;9.40;99.90;;;;;;6277097;22;20325;-72
2022/01/09 02:38:36;;;;;;;6.20;1.73;;;9.40;99.90;;;;;;6277501;22;20330;-71
2022/01/09 02:41:03;;;;;;;9.95;2.47;;;9.40;99.90;;;;;;6277387;22;20015;-71
2022/01/09 02:43:30;;;;;;;3.63;1.58;;;9.30;99.90;;;;;;6277125;22;20031;-71
2022/01/09 02:46:15;;;;;;;3.58;1.65;;;9.30;99.90;;;;;;6276964;22;20003;-71
2022/01/09 02:48:44;;;;;;;6.25;1.95;;;9.30;99.90;;;;;;6277107;22;19999;-71
2022/01/09 02:51:14;;;;;;;11.07;2.47;;;9.30;99.90;;;;;;6276845;22;20004;-71
2022/01/09 02:53:46;;;;;;;5.32;1.90;;;9.30;99.90;;;;;;6276903;22;20087;-71
2022/01/09 02:56:14;;;;;;;11.57;1.73;;;9.30;99.90;;;;;;6276919;22;20000;-72
2022/01/09 02:58:41;;;;;;;9.82;3.00;;;9.20;99.90;;;;;;6276836;22;20452;-72
2022/01/09 03:01:11;;;;;;;4.32;1.77;;;9.20;99.90;;;;;;6224754;22;20008;-71
2022/01/09 03:03:38;;;;;;;4.45;1.40;;;9.20;99.90;;;;;;6277317;22;20029;-71
2022/01/09 03:06:06;;;;;;;4.90;1.58;;;9.20;99.90;;;;;;6244478;23;20012;-71
2022/01/09 03:08:32;;;;;;;7.50;1.90;;;9.20;99.90;;;;;;6246263;22;20000;-72
2022/01/09 03:10:59;;;;;;;4.70;2.20;;;9.20;99.90;;;;;;6219600;23;20012;-71
2022/01/09 03:13:26;;;;;;;4.40;1.80;;;9.10;99.90;;;;;;6246607;22;20079;-71
2022/01/09 03:15:52;;;;;;;2.92;1.65;;;9.10;99.90;;;;;;6246180;22;20012;-71
2022/01/09 03:18:19;;;;;;;4.18;1.80;;;9.10;99.90;;;;;;6244979;23;20007;-71
2022/01/09 03:20:45;;;;;;;2.67;1.30;;;9.10;99.90;;;;;;6246268;23;20015;-72
2022/01/09 03:23:12;;;;;;;8.20;2.03;;;9.00;99.90;;;;;;6246249;23;19997;-72
2022/01/09 03:25:38;;;;;;;8.25;1.73;;;9.00;99.90;;;;;;6246545;22;20004;-71
2022/01/09 03:28:05;;;;;;;5.43;1.90;;;9.10;99.90;;;;;;6246167;22;20066;-71
2022/01/09 03:30:32;;;;;;;4.78;1.35;;;9.00;99.90;;;;;;6244635;23;20012;-72
2022/01/09 03:32:59;;;;;;;5.07;1.75;;;9.10;99.90;;;;;;6246120;22;20007;-72
2022/01/09 03:35:28;;;;;;;1.83;1.20;;;9.00;99.90;;;;;;6244578;23;20023;-72
2022/01/09 03:37:55;;;;;;;5.65;1.98;;;9.10;99.90;;;;;;6246033;22;20472;-72
2022/01/09 03:40:26;;;;;;;1.38;0.98;;;9.10;99.90;;;;;;6246248;22;20007;-71
2022/01/09 03:42:53;;;;;;;4.97;2.00;;;9.00;99.90;;;;;;6246584;22;20010;-72
2022/01/09 03:45:23;;;;;;;6.80;1.70;;;9.00;99.90;;;;;;6246167;22;20035;-71
2022/01/09 03:47:50;;;;;;;5.88;1.42;;;8.90;99.90;;;;;;6246035;22;20446;-72
2022/01/09 03:50:17;;;;;;;7.93;1.40;;;8.90;99.90;;;;;;6244521;23;20008;-71
2022/01/09 03:52:48;;;;;;;7.88;1.55;;;8.90;99.90;;;;;;6246214;23;20011;-71
2022/01/09 03:55:19;;;;;;;8.27;2.22;;;8.90;99.90;;;;;;6248065;22;20099;-71
2022/01/09 03:57:46;;;;;;;5.32;1.50;;;8.90;99.90;;;;;;6248400;22;20004;-72
2022/01/09 04:00:18;;;;;;;5.32;2.08;;;8.90;99.90;;;;;;6246397;23;20338;-72
2022/01/09 04:02:48;;;;;;;7.70;1.60;;;8.90;99.90;;;;;;6247891;22;20066;-72
2022/01/09 04:05:15;;;;;;;13.85;2.25;;;8.90;99.90;;;;;;6257036;22;20019;-72
2022/01/09 04:07:42;;;;;;;4.47;2.10;;;8.90;99.90;;;;;;6278616;22;20000;-72
2022/01/09 04:10:09;;;;;;;6.35;1.55;;;8.80;99.90;;;;;;6251465;22;20444;-71
2022/01/09 04:12:47;;;;;;;7.00;1.98;;;8.90;99.90;;;;;;6278588;22;20093;-71
2022/01/09 04:15:15;;;;;;;4.68;1.25;;;8.80;99.90;;;;;;6278297;22;20051;-71
2022/01/09 04:20:10;;;;;;;8.32;2.00;;;8.80;99.90;;;;;;6278820;22;20022;-72
2022/01/09 04:22:37;;;;;;;14.77;2.25;;;8.80;99.90;;;;;;6251880;22;20011;-72
2022/01/09 04:25:04;;;;;;;4.22;1.35;;;8.80;99.90;;;;;;6278727;22;20364;-72
2022/01/09 04:27:32;;;;;;;8.40;1.63;;;8.80;99.90;;;;;;6278279;22;20134;-72
2022/01/09 04:29:59;;;;;;;2.63;1.70;;;8.80;99.90;;;;;;6278375;22;20004;-72
2022/01/09 04:32:25;;;;;;;6.93;1.30;;;8.80;99.90;;;;;;6278242;22;20008;-71
2022/01/09 04:34:52;;;;;;;9.02;1.75;;;8.70;99.90;;;;;;6278083;22;20090;-71
2022/01/09 04:37:19;;;;;;;8.60;1.65;;;8.70;99.90;;;;;;6251101;22;20338;-73
2022/01/09 04:39:48;;;;;;;3.30;1.35;;;8.70;99.90;;;;;;6278474;22;20011;-72
2022/01/09 04:42:15;;;;;;;7.88;1.60;;;8.70;99.90;;;;;;6251094;22;20421;-72
2022/01/09 04:44:42;;;;;;;5.03;1.50;;;8.70;99.90;;;;;;6278409;22;20053;-72
2022/01/09 04:47:13;;;;;;;4.65;1.40;;;8.70;99.90;;;;;;6278176;22;20134;-72
2022/01/09 04:49:45;;;;;;;4.65;2.05;;;8.60;99.90;;;;;;6251076;22;20552;-72
2022/01/09 04:52:17;;;;;;;2.10;1.02;;;8.60;99.90;;;;;;6278440;22;20425;-72
2022/01/09 04:54:45;;;;;;;4.50;1.38;;;8.60;99.90;;;;;;6277915;22;20016;-72
2022/01/09 04:57:13;;;;;;;9.20;1.88;;;8.60;99.90;;;;;;6278025;22;20041;-72
2022/01/09 04:59:39;;;;;;;5.72;1.75;;;8.70;99.90;;;;;;6278065;22;20003;-72
2022/01/09 05:02:06;;;;;;;4.38;1.75;;;8.60;99.90;;;;;;6277850;22;19996;-72
2022/01/09 05:04:32;;;;;;;4.97;1.67;;;8.60;99.90;;;;;;6277392;22;20004;-72
2022/01/09 05:07:02;;;;;;;4.70;1.60;;;8.60;99.90;;;;;;6278010;22;20429;-72
2022/01/09 05:09:29;;;;;;;2.75;1.75;;;8.60;99.90;;;;;;6277943;22;20326;-72
2022/01/09 05:11:57;;;;;;;6.78;1.92;;;8.60;99.90;;;;;;6278002;22;20065;-72
2022/01/09 05:14:24;;;;;;;2.35;1.75;;;8.50;99.90;;;;;;6277669;22;20097;-72
2022/01/09 05:16:50;;;;;;;4.28;1.73;;;8.50;99.90;;;;;;6277938;22;20000;-72
2022/01/09 05:19:20;;;;;;;4.15;1.80;;;8.60;99.90;;;;;;6278261;22;20451;-72
2022/01/09 05:21:48;;;;;;;2.80;1.58;;;8.60;99.90;;;;;;6277736;22;20014;-72
2022/01/09 05:24:16;;;;;;;7.50;1.70;;;8.60;99.90;;;;;;6277823;22;20039;-72
2022/01/09 05:26:43;;;;;;;17.10;2.10;;;8.50;99.90;;;;;;6277650;22;20010;-72
2022/01/09 05:29:13;;;;;;;5.35;2.20;;;8.50;99.90;;;;;;6278143;22;20030;-72
2022/01/09 05:31:40;;;;;;;4.22;2.15;;;8.60;99.90;;;;;;6277592;22;20045;-72
2022/01/09 05:34:07;;;;;;;6.90;1.88;;;8.50;99.90;;;;;;6277492;22;20014;-72
2022/01/09 05:36:34;;;;;;;15.07;2.00;;;8.60;99.90;;;;;;6277682;22;20061;-72
2022/01/09 05:39:01;;;;;;;3.50;1.23;;;8.50;99.90;;;;;;6277721;22;20448;-72
2022/01/09 05:41:28;;;;;;;12.68;1.48;;;8.60;99.90;;;;;;6277569;22;20012;-72
2022/01/09 05:43:55;;;;;;;8.10;2.03;;;8.50;99.90;;;;;;6277520;22;20006;-72
2022/01/09 05:46:21;;;;;;;3.72;1.15;;;8.40;99.90;;;;;;6277616;22;20027;-72
2022/01/09 05:48:48;;;;;;;3.00;1.55;;;8.50;99.90;;;;;;6277777;22;20417;-71
2022/01/09 05:51:15;;;;;;;10.88;1.73;;;8.50;99.90;;;;;;6277445;22;20011;-71
2022/01/09 05:53:42;;;;;;;2.28;1.33;;;8.40;99.90;;;;;;6277449;22;19999;-72
2022/01/09 05:56:08;;;;;;;7.35;1.95;;;8.40;99.90;;;;;;6277554;22;20007;-72
2022/01/09 05:58:35;;;;;;;2.63;1.17;;;8.40;99.90;;;;;;6277413;22;20478;-72
2022/01/09 06:01:04;;;;;;;4.47;1.63;;;8.40;99.90;;;;;;6277527;22;20318;-72
2022/01/09 06:03:31;;;;;;;6.35;1.90;;;8.40;99.90;;;;;;6277300;22;20014;-72
2022/01/09 06:05:58;;;;;;;3.10;1.85;;;8.50;99.90;;;;;;6277210;22;20035;-71
2022/01/09 06:08:28;;;;;;;2.53;1.48;;;8.50;99.90;;;;;;6250320;22;20429;-71
2022/01/09 06:10:54;;;;;;;3.47;1.45;;;8.40;99.90;;;;;;6277364;22;20010;-72
2022/01/09 06:13:21;;;;;;;12.35;2.22;;;8.40;99.90;;;;;;6277036;22;20334;-72
2022/01/09 06:15:48;;;;;;;3.75;1.85;;;8.30;99.90;;;;;;6277422;22;20015;-72
2022/01/09 06:18:19;;;;;;;7.47;2.40;;;8.30;99.90;;;;;;6277289;22;20437;-72
2022/01/09 06:20:49;;;;;;;7.05;1.83;;;8.30;99.90;;;;;;6277334;22;20110;-72
2022/01/09 06:23:20;;;;;;;4.70;1.92;;;8.30;99.90;;;;;;6277236;22;20414;-73
2022/01/09 06:25:51;;;;;;;10.68;2.35;;;8.40;99.90;;;;;;6277537;22;20004;-72
2022/01/09 06:28:18;;;;;;;6.07;2.45;;;8.30;99.90;;;;;;6250001;22;20018;-72
2022/01/09 06:30:49;;;;;;;3.58;1.70;;;8.30;99.90;;;;;;6277221;22;19999;-71
2022/01/09 06:33:15;;;;;;;3.58;1.60;;;8.30;99.90;;;;;;6277116;22;20004;-72
2022/01/09 06:35:42;;;;;;;6.57;1.98;;;8.30;99.90;;;;;;6276941;22;20035;-71
2022/01/09 06:38:09;;;;;;;4.63;2.05;;;8.30;99.90;;;;;;6276836;22;20473;-72
2022/01/09 06:40:36;;;;;;;6.13;1.90;;;8.30;99.90;;;;;;6277110;22;20132;-71
2022/01/09 06:43:03;;;;;;;4.00;1.80;;;8.20;99.90;;;;;;6277096;22;20004;-72
2022/01/09 06:45:31;;;;;;;4.85;1.52;;;8.30;99.90;;;;;;6277177;22;20003;-72
2022/01/09 06:47:59;;;;;;;6.50;2.28;;;8.30;99.90;;;;;;6277053;22;20010;-70
2022/01/09 06:50:27;;;;;;;4.45;2.03;;;8.40;99.90;;;;;;6277081;22;20008;-70
2022/01/09 06:52:54;;;;;;;4.80;2.08;;;8.30;99.90;;;;;;6276882;22;20441;-69
2022/01/09 06:55:22;;;;;;;12.88;3.08;;;8.20;99.90;;;;;;6249630;22;20114;-70
2022/01/09 06:57:48;;;;;;;3.38;1.88;;;8.10;99.90;;;;;;6277302;22;20417;-70
2022/01/09 07:00:17;;;;;;;3.22;1.40;;;8.10;99.90;;;;;;6276913;22;20003;-69
2022/01/09 07:02:45;;;;;;;7.38;1.75;;;8.10;99.90;;;;;;6277006;22;19996;-71
2022/01/09 07:05:13;;;;;;;9.82;2.20;;;8.00;99.90;;;;;;6276899;22;20008;-69
2022/01/09 07:07:39;;;;;;;3.63;1.90;;;8.10;99.90;;;;;;6276902;22;20082;-70
2022/01/09 07:10:07;;;;;;;6.47;2.15;;;8.30;99.90;;;;;;6224595;22;20003;-70
2022/01/09 07:12:35;;;;;;;3.80;1.70;;;8.40;99.90;;;;;;6276806;22;20031;-70
2022/01/09 07:15:02;;;;;;;6.18;1.80;;;8.40;99.90;;;;;;6277206;22;20018;-69
2022/01/09 07:17:29;;;;;;;5.97;1.90;;;8.40;99.90;;;;;;6276951;22;20011;-70
2022/01/09 07:19:55;;;;;;;2.60;1.70;;;8.40;99.90;;;;;;6276793;22;20014;-70
2022/01/09 07:22:23;;;;;;;4.32;1.35;;;8.40;99.90;;;;;;6276744;22;20015;-70
2022/01/09 07:24:50;;;;;;;4.13;2.17;;;8.30;99.90;;;;;;6277187;22;20010;-70
2022/01/09 07:27:16;;;;;;;3.25;2.15;;;8.40;99.90;;;;;;6278198;22;20333;-71
2022/01/09 07:29:43;;;;;;;3.67;1.92;;;8.40;99.90;;;;;;6279044;22;20003;-70
2022/01/09 07:32:10;;;;;;;4.32;1.95;;;8.40;99.90;;;;;;6278992;22;20007;-70
2022/01/09 07:34:36;;;;;;;4.28;1.60;;;8.30;99.90;;;;;;6279198;22;20019;-70
2022/01/09 07:37:03;;;;;;;4.43;1.90;;;8.10;99.90;;;;;;6278832;22;20071;-70
2022/01/09 07:39:30;;;;;;;8.73;2.00;;;8.00;99.90;;;;;;6251609;22;20023;-71
2022/01/09 07:41:57;;;;;;;3.50;1.90;;;8.10;99.90;;;;;;6251679;22;20429;-70
2022/01/09 07:44:27;;;;;;;3.65;1.75;;;8.20;99.90;;;;;;6279081;22;20019;-70
2022/01/09 07:46:54;;;;;;;4.90;1.95;;;8.30;99.90;;;;;;6278663;22;20011;-70
2022/01/09 07:49:22;;;;;;;9.07;2.38;;;8.40;99.90;;;;;;6278617;22;20003;-71
2022/01/09 07:51:48;;;;;;;3.35;1.80;;;8.40;99.90;;;;;;6278785;22;20000;-70
2022/01/09 07:54:15;;;;;;;5.10;1.90;;;8.50;99.90;;;;;;6278969;22;20081;-70
2022/01/09 07:56:42;;;;;;;3.47;1.83;;;8.50;99.90;;;;;;6251494;22;20004;-70
2022/01/09 07:59:08;;;;;;;6.85;1.95;;;8.50;99.90;;;;;;6278413;22;20065;-70
2022/01/09 08:01:35;;;;;;;7.22;1.60;;;8.50;99.90;;;;;;6251259;22;20034;-70
2022/01/09 08:04:01;;;;;;;5.90;2.10;;;8.50;99.90;;;;;;6278535;22;20054;-70
2022/01/09 08:06:28;;;;;;;4.65;1.98;;;8.60;99.90;;;;;;6246229;23;20016;-70
2022/01/09 08:08:55;;;;;;;2.13;1.42;;;8.70;99.90;;;;;;6247696;22;20434;-70
2022/01/09 08:11:22;;;;;;;5.47;1.60;;;8.80;99.90;;;;;;6247882;22;20007;-70
2022/01/09 08:13:49;;;;;;;4.53;1.67;;;8.70;99.90;;;;;;6247809;23;20008;-70
2022/01/09 08:16:16;;;;;;;3.13;1.52;;;8.70;99.90;;;;;;6247671;22;20004;-70
2022/01/09 08:18:42;;;;;;;5.68;1.48;;;8.80;99.90;;;;;;6247754;22;20082;-70
2022/01/09 08:21:09;;;;;;;2.65;1.38;;;8.90;99.90;;;;;;6246234;23;20004;-70
2022/01/09 08:23:36;;;;;;;4.22;1.65;;;8.90;99.90;;;;;;6247609;22;20066;-70
2022/01/09 08:26:03;;;;;;;6.85;1.80;;;8.90;99.90;;;;;;6247713;22;20000;-70
2022/01/09 08:28:30;;;;;;;1.73;1.50;;;8.90;99.90;;;;;;6247717;22;20342;-70
2022/01/09 08:30:57;;;;;;;3.58;1.77;;;8.90;99.90;;;;;;6220901;23;20454;-70
2022/01/09 08:33:25;;;;;;;4.93;1.80;;;9.00;99.90;;;;;;6247490;22;20012;-70
2022/01/09 08:35:55;;;;;;;3.30;1.88;;;8.90;99.90;;;;;;6246048;23;20004;-70
2022/01/09 08:38:22;;;;;;;4.03;2.05;;;9.10;99.90;;;;;;6247484;22;20079;-70
2022/01/09 08:40:49;;;;;;;5.22;1.90;;;9.20;99.90;;;;;;6247539;22;20031;-70
2022/01/09 08:43:16;;;;;;;3.85;1.75;;;9.30;99.90;;;;;;6247623;23;20001;-70
2022/01/09 08:45:42;;;;;;;8.63;2.55;;;9.30;99.90;;;;;;6247453;22;20008;-70
2022/01/09 08:48:09;;;;;;;6.90;2.70;;;9.40;99.90;;;;;;6247495;23;20111;-70
2022/01/09 08:50:36;;;;;;;8.30;3.00;;;9.40;99.90;;;;;;6247811;22;20004;-70
2022/01/09 08:53:03;;;;;;;8.27;2.40;;;9.40;99.90;;;;;;6247365;22;20008;-70
2022/01/09 08:55:29;;;;;;;18.23;6.40;;;9.40;99.90;;;;;;6247462;22;20069;-70
2022/01/09 08:57:59;;;;;;;7.72;2.63;;;9.50;99.90;;;;;;6247236;22;20004;-71
2022/01/09 09:00:27;;;;;;;2.85;1.90;;;9.50;99.90;;;;;;6247190;22;20008;-71
2022/01/09 09:02:55;;;;;;;4.93;2.97;;;9.50;99.90;;;;;;6247314;22;20011;-71
2022/01/09 09:05:21;;;;;;;7.50;2.20;;;9.50;99.90;;;;;;6257488;22;20007;-70
2022/01/09 09:07:51;;;;;;;7.70;2.67;;;9.60;99.90;;;;;;6277873;22;20007;-71
2022/01/09 09:10:18;;;;;;;8.55;3.22;;;9.70;99.90;;;;;;6251069;22;20027;-71
2022/01/09 09:12:44;;;;;;;6.70;2.70;;;9.70;99.90;;;;;;6277751;22;20054;-71
2022/01/09 09:15:12;;;;;;;7.53;3.13;;;9.70;99.90;;;;;;6277636;22;20031;-71
2022/01/09 09:17:39;;;;;;;3.67;2.28;;;9.70;99.90;;;;;;6277739;22;20438;-71
2022/01/09 09:20:06;;;;;;;4.43;2.33;;;9.80;99.90;;;;;;6277791;22;20004;-71
2022/01/09 09:22:35;;;;;;;4.43;2.30;;;9.80;99.90;;;;;;6277819;22;20003;-71
2022/01/09 09:25:01;;;;;;;3.60;2.05;;;9.80;99.90;;;;;;6278210;22;20453;-71
2022/01/09 09:27:30;;;;;;;2.97;2.25;;;9.80;99.90;;;;;;6278184;22;20030;-71
2022/01/09 09:30:03;;;;;;;5.30;1.98;;;9.80;99.90;;;;;;6277727;22;20038;-71
2022/01/09 09:32:31;;;;;;;5.32;1.63;;;9.90;99.90;;;;;;6277577;22;20433;-71
2022/01/09 09:34:58;;;;;;;4.05;1.90;;;9.90;99.90;;;;;;6278034;22;20433;-70
2022/01/09 09:37:27;;;;;;;5.78;2.00;;;9.90;99.90;;;;;;6277802;22;20339;-71
2022/01/09 09:39:55;;;;;;;13.82;2.28;;;9.90;99.90;;;;;;6277575;22;20031;-71
2022/01/09 09:42:22;;;;;;;5.68;2.55;;;10.00;99.90;;;;;;6250652;22;20004;-71
2022/01/09 09:44:49;;;;;;;3.03;1.85;;;10.00;99.90;;;;;;6277936;22;20083;-71
2022/01/09 09:47:21;;;;;;;7.63;3.25;;;10.00;99.90;;;;;;6277574;22;20441;-71
2022/01/09 09:49:49;;;;;;;4.90;2.25;;;10.10;99.90;;;;;;6277428;22;20039;-71
2022/01/09 09:52:18;;;;;;;5.30;2.25;;;10.20;99.90;;;;;;6277460;22;20004;-71
2022/01/09 09:54:48;;;;;;;5.80;2.35;;;10.10;99.90;;;;;;6277291;22;20015;-71
2022/01/09 09:57:15;;;;;;;6.32;3.28;;;10.20;99.90;;;;;;6277377;22;20007;-71
2022/01/09 09:59:42;;;;;;;5.72;2.20;;;10.10;99.90;;;;;;6277282;22;20008;-71
2022/01/09 10:02:14;;;;;;;8.57;1.95;;;10.20;99.90;;;;;;6277700;22;20031;-70
2022/01/09 10:05:04;;;;;;;4.30;2.17;;;10.20;99.90;;;;;;6277023;22;20118;-70
2022/01/09 10:07:32;;;;;;;5.55;1.70;;;10.20;99.90;;;;;;6277350;22;20019;-70
2022/01/09 10:10:08;;;;;;;2.90;1.70;;;10.20;99.90;;;;;;6277270;22;20000;-70
2022/01/09 10:12:36;;;;;;;2.88;1.33;;;10.20;99.90;;;;;;6277344;22;20083;-70
2022/01/09 10:15:07;;;;;;;4.75;2.65;;;10.30;99.90;;;;;;6277119;22;20023;-69
2022/01/09 10:17:41;;;;;;;5.78;2.92;;;10.20;99.90;;;;;;6277179;22;20401;-70
2022/01/09 10:20:25;;;;;;;6.45;2.65;;;10.30;99.90;;;;;;6277134;22;20063;-71
2022/01/09 10:22:55;;;;;;;6.45;2.38;;;10.40;99.90;;;;;;6277703;22;20456;-70
2022/01/09 10:25:33;;;;;;;4.28;2.20;;;10.20;99.90;;;;;;6277421;22;20007;-70
2022/01/09 10:28:12;;;;;;;4.85;1.48;;;10.20;99.90;;;;;;6277403;22;20071;-70
2022/01/09 10:30:50;;;;;;;3.88;2.17;;;10.20;99.90;;;;;;6277256;22;20008;-70
2022/01/09 10:33:26;;;;;;;3.38;1.65;;;10.30;99.90;;;;;;6277296;22;20020;-70
2022/01/09 10:35:53;;;;;;;5.93;2.60;;;10.30;99.90;;;;;;6278108;22;20016;-69
2022/01/09 10:38:23;;;;;;;4.15;2.15;;;10.40;99.90;;;;;;6277346;22;20003;-70
2022/01/09 10:41:03;;;;;;;5.25;2.03;;;10.30;99.90;;;;;;6276973;22;20031;-70
2022/01/09 10:43:37;;;;;;;4.78;1.92;;;10.40;99.90;;;;;;6276954;22;20033;-70
2022/01/09 10:46:04;;;;;;;4.85;2.67;;;10.40;99.90;;;;;;6250072;22;20034;-69
2022/01/09 10:48:43;;;;;;;3.30;1.38;;;10.50;99.90;;;;;;6277085;22;20012;-69
2022/01/09 10:51:13;;;;;;;7.30;3.60;;;10.50;99.90;;;;;;6250932;22;20023;-70
2022/01/09 10:53:43;;;;;;;8.13;3.67;;;10.50;99.90;;;;;;6277268;22;20329;-70
2022/01/09 10:56:24;;;;;;;4.60;1.60;;;10.50;99.90;;;;;;6276966;22;20449;-70
2022/01/09 10:58:53;;;;;;;2.03;1.15;;;10.50;99.90;;;;;;6276697;22;20103;-70
2022/01/09 11:01:25;;;;;;;3.70;1.55;;;10.40;99.90;;;;;;6249903;22;20438;-68
2022/01/09 11:03:53;;;;;;;4.70;2.03;;;10.50;99.90;;;;;;6277239;22;20372;-69
2022/01/09 11:06:21;;;;;;;3.42;2.05;;;10.50;99.90;;;;;;6244597;23;20079;-71
2022/01/09 11:08:49;;;;;;;3.35;1.55;;;10.50;99.90;;;;;;6246214;22;20085;-70
2022/01/09 11:13:52;;;;;;;3.55;1.38;;;10.60;99.90;;;;;;6246189;22;20012;-71
2022/01/09 11:16:33;;;;;;;5.70;1.30;;;10.50;99.90;;;;;;6246369;22;20425;-71
2022/01/09 11:19:19;;;;;;;5.18;1.80;;;10.50;99.90;;;;;;6246723;22;20380;-70
2022/01/09 11:21:55;;;;;;;2.33;1.27;;;10.60;99.90;;;;;;6244744;23;20040;-71
2022/01/09 11:24:59;;;;;;;2.47;0.90;;;10.60;99.90;;;;;;6246326;22;20315;-70
2022/01/09 11:27:47;;;;;;;4.70;1.85;;;10.60;99.90;;;;;;6246195;22;20000;-70
2022/01/09 11:30:38;;;;;;;4.10;2.03;;;10.60;99.90;;;;;;6245210;23;20008;-70
2022/01/09 11:33:13;;;;;;;3.78;1.05;;;10.60;99.90;;;;;;6246190;22;20031;-70
2022/01/09 11:36:13;;;;;;;1.75;1.17;;;10.60;99.90;;;;;;6244529;23;20095;-69
2022/01/09 11:39:12;;;;;;;5.35;1.50;;;10.70;99.90;;;;;;6124351;23;20092;-70
2022/01/09 11:41:45;;;;;;;1.92;1.58;;;10.70;99.90;;;;;;6124163;23;20014;-70
2022/01/09 11:44:16;;;;;;;4.65;1.83;;;10.70;99.90;;;;;;6124108;23;20010;-69
2022/01/09 11:47:00;;;;;;;6.65;2.40;;;10.70;99.90;;;;;;6123910;23;20010;-70
2022/01/09 11:49:29;;;;;;;4.55;1.52;;;10.80;99.90;;;;;;6124359;23;20017;-69
2022/01/09 11:51:59;;;;;;;8.43;2.60;;;10.70;99.90;;;;;;6099701;23;20037;-68
2022/01/09 11:54:28;;;;;;;4.85;2.00;;;10.80;99.90;;;;;;6123797;23;20041;-68
2022/01/09 11:57:10;;;;;;;5.00;2.55;;;10.80;99.90;;;;;;6124331;23;20014;-69
2022/01/09 11:59:40;;;;;;;5.85;1.88;;;10.80;99.90;;;;;;6099533;23;20010;-69
2022/01/09 12:02:16;;;;;;;5.78;2.25;;;10.90;99.90;;;;;;6124217;23;20017;-70
2022/01/09 12:04:43;;;;;;;5.63;3.00;;;10.90;99.90;;;;;;6124223;23;20093;-69
2022/01/09 12:07:39;;;;;;;5.05;3.03;;;10.80;99.90;;;;;;6123934;23;20021;-68
2022/01/09 12:10:17;;;;;;;6.47;2.58;;;10.90;99.90;;;;;;6121404;23;20006;-69
2022/01/09 12:12:50;;;;;;;4.20;2.33;;;10.90;99.90;;;;;;6124481;23;20006;-70
2022/01/09 12:15:38;;;;;;;5.32;2.25;;;11.00;99.90;;;;;;6240152;23;20376;-69
2022/01/09 12:18:07;;;;;;;7.40;3.53;;;11.20;99.90;;;;;;6247723;22;20012;-70
2022/01/09 12:20:43;;;;;;;8.60;3.30;;;11.10;99.90;;;;;;6248104;22;20000;-70
2022/01/09 12:23:21;;;;;;;5.78;3.20;;;11.10;99.90;;;;;;6248121;23;20012;-70
2022/01/09 12:25:53;;;;;;;5.00;3.20;;;11.20;99.90;;;;;;6248135;22;20032;-70
2022/01/09 12:28:23;;;;;;;3.83;2.17;;;11.30;99.90;;;;;;6247720;22;20004;-70
2022/01/09 12:30:59;;;;;;;23.13;7.72;;;11.40;99.90;;;;;;6271482;22;20486;-70
2022/01/09 12:33:27;;;;;;;14.48;6.20;;;11.50;99.90;;;;;;6247532;22;20043;-70
2022/01/09 12:36:06;;;;;;;15.73;6.07;;;11.30;99.90;;;;;;6246039;23;20012;-70
2022/01/09 12:38:51;;;;;;;25.98;8.90;;;11.30;99.90;;;;;;6246051;23;20008;-69
2022/01/09 12:41:21;;;;;;;20.27;7.57;;;11.30;99.90;;;;;;6247656;22;20011;-69
2022/01/09 12:43:56;;;;;;;31.05;12.25;;;11.30;99.90;;;;;;6247612;22;20460;-69
2022/01/09 12:46:23;;;;;;;28.38;10.20;;;11.30;99.90;;;;;;6247466;22;20004;-70
2022/01/09 12:48:55;;;;;;;18.77;7.68;;;11.50;99.90;;;;;;6247365;22;20082;-70
2022/01/09 12:51:23;;;;;;;7.82;3.70;;;11.50;99.90;;;;;;6247342;22;20014;-70
2022/01/09 12:53:51;;;;;;;10.70;4.20;;;11.50;99.90;;;;;;6247351;22;20015;-69
2022/01/09 12:56:21;;;;;;;19.98;6.28;;;11.60;99.90;;;;;;6247450;22;20020;-70
2022/01/09 12:58:52;;;;;;;12.52;4.75;;;11.70;99.90;;;;;;6247504;22;20004;-70
2022/01/09 13:01:24;;;;;;;8.95;3.78;;;11.60;99.90;;;;;;6247332;22;20495;-70
2022/01/09 13:03:54;;;;;;;9.30;2.97;;;11.70;99.90;;;;;;6245875;23;20019;-70
2022/01/09 13:06:32;;;;;;;13.25;4.20;;;11.70;99.90;;;;;;6269473;22;20016;-70
2022/01/09 13:09:06;;;;;;;4.05;1.60;;;11.60;99.90;;;;;;6278390;22;20433;-70
2022/01/09 13:11:36;;;;;;;3.83;1.90;;;11.50;99.90;;;;;;6277976;22;19999;-70
2022/01/09 13:14:02;;;;;;;3.65;1.60;;;11.30;99.90;;;;;;6278098;22;20440;-70